SHU5480 UHWW-RJAA
Flight info
| Callsign | SHU5480 |
|---|---|
| Flight time | 1h 33m |
| Altitude | 35100 |
| Route | PERAS2F PERAS A723 ARLAS B451 IGROD/N0439F351 B451 KADBO R211 GTC Y303 ENTAK Y30 SWAMP |
| Aircraft | A319/M-SDE3FGHIRWY/LB1 |
Departure
| Time | 2026-04-21 15:03 |
|---|---|
| Airport | Vladivostok International Airport (UHWW) |
Arrival
| Time | 2026-04-21 16:37 |
|---|---|
| Airport | Narita International Airport (RJAA) |
| Time | Latitude | Longitude | Altitude | Speed | Heading |
|---|---|---|---|---|---|
| 2026-04-21 14:47 | 43.39838 | 132.16352 | 63 ft | 0 kts | 152° |
| 2026-04-21 14:55 | 43.39835 | 132.16354 | 69 ft | 1 kts | 152° |
| 2026-04-21 14:55 | 43.39824 | 132.16362 | 62 ft | 3 kts | 152° |
| 2026-04-21 14:55 | 43.39789 | 132.16375 | 61 ft | 7 kts | 189° |
| 2026-04-21 14:55 | 43.39757 | 132.16319 | 68 ft | 8 kts | 242° |
| 2026-04-21 14:56 | 43.39740 | 132.16243 | 69 ft | 9 kts | 278° |
| 2026-04-21 14:56 | 43.39786 | 132.16191 | 65 ft | 9 kts | 329° |
| 2026-04-21 14:56 | 43.39846 | 132.16144 | 68 ft | 10 kts | 332° |
| 2026-04-21 14:56 | 43.39900 | 132.16088 | 66 ft | 8 kts | 283° |
| 2026-04-21 14:57 | 43.39874 | 132.16013 | 67 ft | 9 kts | 242° |
| 2026-04-21 14:57 | 43.39841 | 132.15930 | 62 ft | 10 kts | 242° |
| 2026-04-21 14:57 | 43.39804 | 132.15838 | 69 ft | 11 kts | 240° |
| 2026-04-21 14:57 | 43.39763 | 132.15740 | 63 ft | 12 kts | 240° |
| 2026-04-21 14:58 | 43.39719 | 132.15632 | 67 ft | 13 kts | 241° |
| 2026-04-21 14:58 | 43.39672 | 132.15516 | 64 ft | 14 kts | 241° |
| 2026-04-21 14:58 | 43.39623 | 132.15393 | 65 ft | 15 kts | 241° |
| 2026-04-21 14:58 | 43.39570 | 132.15264 | 68 ft | 16 kts | 240° |
| 2026-04-21 14:59 | 43.39514 | 132.15127 | 69 ft | 17 kts | 242° |
| 2026-04-21 14:59 | 43.39457 | 132.14983 | 67 ft | 18 kts | 241° |
| 2026-04-21 14:59 | 43.39397 | 132.14833 | 68 ft | 18 kts | 242° |
| 2026-04-21 14:59 | 43.39333 | 132.14675 | 66 ft | 19 kts | 240° |
| 2026-04-21 15:00 | 43.39265 | 132.14511 | 63 ft | 20 kts | 242° |
| 2026-04-21 15:00 | 43.39197 | 132.14339 | 69 ft | 20 kts | 241° |
| 2026-04-21 15:00 | 43.39127 | 132.14167 | 70 ft | 21 kts | 240° |
| 2026-04-21 15:00 | 43.39054 | 132.13988 | 69 ft | 22 kts | 240° |
| 2026-04-21 15:01 | 43.38979 | 132.13802 | 67 ft | 23 kts | 241° |
| 2026-04-21 15:01 | 43.38901 | 132.13610 | 67 ft | 23 kts | 240° |
| 2026-04-21 15:01 | 43.38822 | 132.13411 | 62 ft | 24 kts | 241° |
| 2026-04-21 15:01 | 43.38769 | 132.13240 | 68 ft | 12 kts | 274° |
| 2026-04-21 15:02 | 43.38828 | 132.13164 | 67 ft | 12 kts | 331° |
| 2026-04-21 15:02 | 43.38900 | 132.13106 | 66 ft | 13 kts | 329° |
| 2026-04-21 15:02 | 43.38945 | 132.13120 | 65 ft | 7 kts | 58° |
| 2026-04-21 15:02 | 43.38973 | 132.13187 | 66 ft | 10 kts | 61° |
| 2026-04-21 15:03 | 43.39079 | 132.13450 | 66 ft | 68 kts | 61° |
| 2026-04-21 15:03 | 43.39437 | 132.14333 | 67 ft | 140 kts | 61° |
| 2026-04-21 15:03 | 43.39944 | 132.15600 | 531 ft | 155 kts | 61° |
| 2026-04-21 15:03 | 43.40453 | 132.16916 | 1304 ft | 157 kts | 58° |
| 2026-04-21 15:04 | 43.40981 | 132.18266 | 1907 ft | 171 kts | 57° |
| 2026-04-21 15:04 | 43.41608 | 132.19789 | 2385 ft | 195 kts | 56° |
| 2026-04-21 15:04 | 43.42323 | 132.21510 | 2917 ft | 220 kts | 57° |
| 2026-04-21 15:04 | 43.42852 | 132.22790 | 3306 ft | 236 kts | 58° |
| 2026-04-21 15:05 | 43.43988 | 132.25566 | 4139 ft | 265 kts | 59° |
| 2026-04-21 15:05 | 43.45854 | 132.30213 | 5935 ft | 287 kts | 58° |
| 2026-04-21 15:05 | 43.46831 | 132.32656 | 6854 ft | 295 kts | 58° |
| 2026-04-21 15:06 | 43.47506 | 132.34340 | 7519 ft | 299 kts | 57° |
| 2026-04-21 15:06 | 43.48418 | 132.37997 | 8736 ft | 317 kts | 83° |
| 2026-04-21 15:06 | 43.48430 | 132.40030 | 9345 ft | 324 kts | 95° |
| 2026-04-21 15:06 | 43.47904 | 132.43122 | 10149 ft | 333 kts | 111° |
| 2026-04-21 15:07 | 43.47208 | 132.46266 | 10674 ft | 354 kts | 106° |
| 2026-04-21 15:07 | 43.46576 | 132.49658 | 11059 ft | 378 kts | 105° |
| 2026-04-21 15:07 | 43.45724 | 132.54426 | 11927 ft | 395 kts | 104° |
| 2026-04-21 15:07 | 43.45274 | 132.56930 | 12413 ft | 402 kts | 104° |
| 2026-04-21 15:08 | 43.44584 | 132.60701 | 13204 ft | 411 kts | 105° |
| 2026-04-21 15:08 | 43.43863 | 132.64549 | 13946 ft | 419 kts | 105° |
| 2026-04-21 15:08 | 43.43120 | 132.68449 | 14665 ft | 425 kts | 106° |
| 2026-04-21 15:08 | 43.42364 | 132.72411 | 15421 ft | 430 kts | 104° |
| 2026-04-21 15:09 | 43.41592 | 132.76419 | 16197 ft | 435 kts | 106° |
| 2026-04-21 15:09 | 43.40825 | 132.80338 | 16912 ft | 439 kts | 106° |
| 2026-04-21 15:09 | 43.40027 | 132.84425 | 17680 ft | 445 kts | 106° |
| 2026-04-21 15:09 | 43.39406 | 132.88610 | 18383 ft | 449 kts | 96° |
| 2026-04-21 15:10 | 43.39255 | 132.92901 | 19027 ft | 451 kts | 85° |
| 2026-04-21 15:10 | 43.39444 | 132.97214 | 19669 ft | 455 kts | 85° |
| 2026-04-21 15:10 | 43.39562 | 133.01581 | 20388 ft | 459 kts | 85° |
| 2026-04-21 15:10 | 43.39610 | 133.05998 | 21001 ft | 465 kts | 86° |
| 2026-04-21 15:11 | 43.39560 | 133.10473 | 21624 ft | 470 kts | 88° |
| 2026-04-21 15:11 | 43.39658 | 133.15030 | 22286 ft | 474 kts | 86° |
| 2026-04-21 15:11 | 43.39658 | 133.19597 | 22936 ft | 478 kts | 85° |
| 2026-04-21 15:11 | 43.39750 | 133.24122 | 23515 ft | 482 kts | 85° |
| 2026-04-21 15:12 | 43.39850 | 133.28755 | 23996 ft | 487 kts | 84° |
| 2026-04-21 15:12 | 43.39963 | 133.33432 | 24434 ft | 492 kts | 84° |
| 2026-04-21 15:12 | 43.40068 | 133.38208 | 24885 ft | 497 kts | 85° |
| 2026-04-21 15:12 | 43.40119 | 133.42989 | 25342 ft | 502 kts | 86° |
| 2026-04-21 15:13 | 43.40126 | 133.47807 | 25784 ft | 506 kts | 86° |
| 2026-04-21 15:13 | 43.40096 | 133.52674 | 26213 ft | 511 kts | 88° |
| 2026-04-21 15:13 | 43.40063 | 133.57582 | 26684 ft | 515 kts | 88° |
| 2026-04-21 15:13 | 43.40045 | 133.62526 | 27091 ft | 519 kts | 87° |
| 2026-04-21 15:14 | 43.40040 | 133.67516 | 27523 ft | 523 kts | 87° |
| 2026-04-21 15:14 | 43.40041 | 133.72540 | 27976 ft | 528 kts | 87° |
| 2026-04-21 15:14 | 43.40019 | 133.77611 | 28379 ft | 533 kts | 90° |
| 2026-04-21 15:14 | 43.39583 | 133.82709 | 28778 ft | 539 kts | 101° |
| 2026-04-21 15:15 | 43.38594 | 133.87694 | 29137 ft | 542 kts | 112° |
| 2026-04-21 15:15 | 43.37098 | 133.92431 | 29488 ft | 541 kts | 122° |
| 2026-04-21 15:15 | 43.35142 | 133.96839 | 29850 ft | 538 kts | 131° |
| 2026-04-21 15:15 | 43.32844 | 134.00891 | 30150 ft | 538 kts | 135° |
| 2026-04-21 15:16 | 43.30505 | 134.04933 | 30460 ft | 541 kts | 135° |
| 2026-04-21 15:16 | 43.28168 | 134.08994 | 30773 ft | 543 kts | 135° |
| 2026-04-21 15:16 | 43.25823 | 134.13076 | 31090 ft | 545 kts | 135° |
| 2026-04-21 15:16 | 43.23467 | 134.17172 | 31365 ft | 548 kts | 135° |
| 2026-04-21 15:17 | 43.21101 | 134.21269 | 31704 ft | 548 kts | 135° |
| 2026-04-21 15:17 | 43.18733 | 134.25360 | 32120 ft | 547 kts | 135° |
| 2026-04-21 15:17 | 43.16364 | 134.29443 | 32537 ft | 547 kts | 135° |
| 2026-04-21 15:17 | 43.13993 | 134.33513 | 32946 ft | 546 kts | 136° |
| 2026-04-21 15:18 | 43.11626 | 134.37573 | 33323 ft | 545 kts | 136° |
| 2026-04-21 15:18 | 43.09257 | 134.41630 | 33687 ft | 546 kts | 136° |
| 2026-04-21 15:18 | 43.06880 | 134.45691 | 34028 ft | 546 kts | 136° |
| 2026-04-21 15:18 | 43.04510 | 134.49738 | 34389 ft | 545 kts | 136° |
| 2026-04-21 15:19 | 43.02141 | 134.53782 | 34660 ft | 545 kts | 137° |
| 2026-04-21 15:19 | 42.99779 | 134.57810 | 34722 ft | 540 kts | 137° |
| 2026-04-21 15:19 | 42.95100 | 134.65763 | 34727 ft | 537 kts | 138° |
| 2026-04-21 15:20 | 42.90394 | 134.73696 | 34725 ft | 538 kts | 138° |
| 2026-04-21 15:20 | 42.87216 | 134.79036 | 34733 ft | 538 kts | 138° |
| 2026-04-21 15:23 | 42.83137 | 134.85883 | 34686 ft | 539 kts | 139° |
| 2026-04-21 15:24 | 42.78400 | 134.93827 | 34687 ft | 541 kts | 139° |
| 2026-04-21 15:24 | 42.73635 | 135.01789 | 34693 ft | 543 kts | 139° |
| 2026-04-21 15:25 | 42.68879 | 135.09711 | 34681 ft | 545 kts | 140° |
| 2026-04-21 15:25 | 42.64063 | 135.17713 | 34686 ft | 548 kts | 139° |
| 2026-04-21 15:26 | 42.59240 | 135.25777 | 34695 ft | 551 kts | 139° |
| 2026-04-21 15:26 | 42.54399 | 135.33858 | 34692 ft | 553 kts | 140° |
| 2026-04-21 15:27 | 42.49523 | 135.41964 | 34692 ft | 555 kts | 140° |
| 2026-04-21 15:27 | 42.44629 | 135.50056 | 34697 ft | 556 kts | 140° |
| 2026-04-21 15:28 | 42.39705 | 135.58144 | 34688 ft | 558 kts | 140° |
| 2026-04-21 15:28 | 42.34739 | 135.66261 | 34718 ft | 562 kts | 140° |
| 2026-04-21 15:29 | 42.29731 | 135.74428 | 34690 ft | 565 kts | 140° |
| 2026-04-21 15:29 | 42.24756 | 135.82568 | 34700 ft | 566 kts | 140° |
| 2026-04-21 15:30 | 42.19731 | 135.90763 | 34707 ft | 566 kts | 141° |
| 2026-04-21 15:30 | 42.14699 | 135.98941 | 34713 ft | 567 kts | 141° |
| 2026-04-21 15:31 | 42.09647 | 136.07104 | 34724 ft | 567 kts | 141° |
| 2026-04-21 15:31 | 42.04589 | 136.15253 | 34730 ft | 567 kts | 141° |
| 2026-04-21 15:32 | 41.99518 | 136.23404 | 34713 ft | 568 kts | 141° |
| 2026-04-21 15:32 | 41.94436 | 136.31546 | 34723 ft | 569 kts | 141° |
| 2026-04-21 15:33 | 41.89349 | 136.39685 | 34712 ft | 569 kts | 141° |
| 2026-04-21 15:33 | 41.84253 | 136.47817 | 34728 ft | 569 kts | 141° |
| 2026-04-21 15:34 | 41.79151 | 136.55941 | 34740 ft | 570 kts | 141° |
| 2026-04-21 15:34 | 41.74034 | 136.64048 | 34723 ft | 570 kts | 141° |
| 2026-04-21 15:35 | 41.68800 | 136.71936 | 34738 ft | 557 kts | 150° |
| 2026-04-21 15:35 | 41.65895 | 136.75238 | 34743 ft | 540 kts | 158° |
| 2026-04-21 15:35 | 41.62823 | 136.77985 | 34747 ft | 523 kts | 166° |
| 2026-04-21 15:36 | 41.59643 | 136.80193 | 34753 ft | 506 kts | 174° |
| 2026-04-21 15:36 | 41.56425 | 136.81857 | 34752 ft | 488 kts | 181° |
| 2026-04-21 15:36 | 41.49979 | 136.84460 | 34754 ft | 484 kts | 182° |
| 2026-04-21 15:37 | 41.43508 | 136.87095 | 34754 ft | 489 kts | 182° |
| 2026-04-21 15:37 | 41.37036 | 136.89751 | 34763 ft | 490 kts | 181° |
| 2026-04-21 15:38 | 41.30514 | 136.92413 | 34768 ft | 490 kts | 182° |
| 2026-04-21 15:38 | 41.23986 | 136.95056 | 34742 ft | 490 kts | 182° |
| 2026-04-21 15:39 | 41.17461 | 136.97684 | 34725 ft | 490 kts | 182° |
| 2026-04-21 15:39 | 41.10903 | 137.00320 | 34793 ft | 493 kts | 181° |
| 2026-04-21 15:40 | 41.04325 | 137.02968 | 34781 ft | 494 kts | 181° |
| 2026-04-21 15:40 | 40.97761 | 137.05616 | 34791 ft | 493 kts | 181° |
| 2026-04-21 15:41 | 40.91186 | 137.08256 | 34793 ft | 493 kts | 182° |
| 2026-04-21 15:41 | 40.84661 | 137.10875 | 34779 ft | 492 kts | 182° |
| 2026-04-21 15:42 | 40.78089 | 137.13501 | 34829 ft | 494 kts | 182° |
| 2026-04-21 15:42 | 40.71518 | 137.16114 | 34839 ft | 493 kts | 182° |
| 2026-04-21 15:43 | 40.64960 | 137.18726 | 34820 ft | 491 kts | 182° |
| 2026-04-21 15:43 | 40.58417 | 137.21321 | 34834 ft | 490 kts | 182° |
| 2026-04-21 15:44 | 40.51882 | 137.23905 | 34837 ft | 490 kts | 182° |
| 2026-04-21 15:44 | 40.45351 | 137.26493 | 34846 ft | 489 kts | 182° |
| 2026-04-21 15:45 | 40.38830 | 137.29063 | 34842 ft | 489 kts | 182° |
| 2026-04-21 15:45 | 40.32312 | 137.31628 | 34841 ft | 489 kts | 182° |
| 2026-04-21 15:46 | 40.26897 | 137.33759 | 34786 ft | 489 kts | 182° |
| 2026-04-21 15:46 | 40.20409 | 137.36315 | 34857 ft | 486 kts | 182° |
| 2026-04-21 15:47 | 40.13928 | 137.38842 | 34873 ft | 485 kts | 182° |
| 2026-04-21 15:47 | 40.07464 | 137.41358 | 34863 ft | 484 kts | 182° |
| 2026-04-21 15:48 | 40.01014 | 137.43875 | 34888 ft | 483 kts | 182° |
| 2026-04-21 15:48 | 39.94576 | 137.46425 | 34857 ft | 483 kts | 181° |
| 2026-04-21 15:49 | 39.88166 | 137.49018 | 34892 ft | 481 kts | 181° |
| 2026-04-21 15:49 | 39.81787 | 137.51603 | 34906 ft | 479 kts | 181° |
| 2026-04-21 15:50 | 39.75417 | 137.54157 | 34907 ft | 478 kts | 181° |
| 2026-04-21 15:50 | 39.69112 | 137.56659 | 34917 ft | 477 kts | 181° |
| 2026-04-21 15:51 | 39.62779 | 137.59170 | 34909 ft | 475 kts | 181° |
| 2026-04-21 15:51 | 39.56470 | 137.61681 | 34908 ft | 474 kts | 181° |
| 2026-04-21 15:52 | 39.50175 | 137.64189 | 34930 ft | 473 kts | 180° |
| 2026-04-21 15:52 | 39.43885 | 137.66683 | 34947 ft | 472 kts | 181° |
| 2026-04-21 15:53 | 39.37604 | 137.69165 | 34902 ft | 472 kts | 180° |
| 2026-04-21 15:53 | 39.31293 | 137.71656 | 34926 ft | 471 kts | 180° |
| 2026-04-21 15:54 | 39.25019 | 137.74407 | 34909 ft | 495 kts | 169° |
| 2026-04-21 15:54 | 39.21987 | 137.76657 | 34907 ft | 512 kts | 159° |
| 2026-04-21 15:54 | 39.19165 | 137.79615 | 34923 ft | 529 kts | 150° |
| 2026-04-21 15:55 | 39.13628 | 137.85811 | 34992 ft | 527 kts | 152° |
| 2026-04-21 15:55 | 39.07957 | 137.91894 | 34987 ft | 527 kts | 153° |
| 2026-04-21 15:56 | 39.02295 | 137.97909 | 35000 ft | 528 kts | 153° |
| 2026-04-21 15:56 | 38.96669 | 138.03993 | 35010 ft | 529 kts | 152° |
| 2026-04-21 15:57 | 38.91075 | 138.10116 | 34979 ft | 528 kts | 151° |
| 2026-04-21 15:57 | 38.85518 | 138.16169 | 34996 ft | 526 kts | 152° |
| 2026-04-21 15:58 | 38.79878 | 138.22253 | 35009 ft | 526 kts | 152° |
| 2026-04-21 15:58 | 38.74280 | 138.28274 | 35013 ft | 526 kts | 152° |
| 2026-04-21 15:59 | 38.68733 | 138.34236 | 35013 ft | 525 kts | 152° |
| 2026-04-21 15:59 | 38.63127 | 138.40254 | 35008 ft | 525 kts | 152° |
| 2026-04-21 16:00 | 38.57519 | 138.46258 | 35011 ft | 525 kts | 152° |
| 2026-04-21 16:00 | 38.51909 | 138.52244 | 34983 ft | 525 kts | 152° |
| 2026-04-21 16:01 | 38.46293 | 138.58234 | 35007 ft | 525 kts | 152° |
| 2026-04-21 16:01 | 38.40671 | 138.64189 | 34954 ft | 524 kts | 153° |
| 2026-04-21 16:02 | 38.35064 | 138.70081 | 35057 ft | 522 kts | 153° |
| 2026-04-21 16:02 | 38.29458 | 138.75977 | 35049 ft | 522 kts | 153° |
| 2026-04-21 16:03 | 38.23875 | 138.81863 | 35025 ft | 521 kts | 153° |
| 2026-04-21 16:03 | 38.18298 | 138.87720 | 35029 ft | 520 kts | 153° |
| 2026-04-21 16:04 | 38.12711 | 138.93559 | 35031 ft | 520 kts | 153° |
| 2026-04-21 16:04 | 38.07131 | 138.99428 | 35039 ft | 521 kts | 153° |
| 2026-04-21 16:05 | 38.01568 | 139.05364 | 35047 ft | 522 kts | 152° |
| 2026-04-21 16:05 | 37.96110 | 139.11516 | 35029 ft | 535 kts | 144° |
| 2026-04-21 16:06 | 37.93746 | 139.15151 | 35035 ft | 548 kts | 134° |
| 2026-04-21 16:06 | 37.91576 | 139.19134 | 35039 ft | 549 kts | 133° |
| 2026-04-21 16:06 | 37.87149 | 139.27076 | 35042 ft | 546 kts | 134° |
| 2026-04-21 16:07 | 37.82740 | 139.34821 | 35077 ft | 546 kts | 135° |
| 2026-04-21 16:07 | 37.78273 | 139.42672 | 35090 ft | 546 kts | 134° |
| 2026-04-21 16:08 | 37.71679 | 139.54342 | 35084 ft | 542 kts | 134° |
| 2026-04-21 16:09 | 37.67326 | 139.62031 | 35085 ft | 542 kts | 134° |
| 2026-04-21 16:09 | 37.62944 | 139.69733 | 35142 ft | 539 kts | 134° |
| 2026-04-21 16:10 | 37.58559 | 139.77414 | 35131 ft | 539 kts | 134° |
| 2026-04-21 16:10 | 37.54171 | 139.85084 | 35124 ft | 539 kts | 134° |
| 2026-04-21 16:11 | 37.49776 | 139.92754 | 34848 ft | 540 kts | 134° |
| 2026-04-21 16:11 | 37.47579 | 139.96581 | 34398 ft | 539 kts | 135° |
| 2026-04-21 16:11 | 37.45381 | 140.00409 | 33876 ft | 538 kts | 134° |
| 2026-04-21 16:11 | 37.43191 | 140.04220 | 33364 ft | 537 kts | 135° |
| 2026-04-21 16:12 | 37.41737 | 140.06743 | 33044 ft | 537 kts | 135° |
| 2026-04-21 16:12 | 37.38793 | 140.11833 | 32447 ft | 538 kts | 135° |
| 2026-04-21 16:12 | 37.36590 | 140.15633 | 31993 ft | 538 kts | 135° |
| 2026-04-21 16:12 | 37.34398 | 140.19424 | 31501 ft | 532 kts | 135° |
| 2026-04-21 16:13 | 37.32233 | 140.23179 | 31090 ft | 528 kts | 135° |
| 2026-04-21 16:13 | 37.30085 | 140.26902 | 30660 ft | 525 kts | 135° |
| 2026-04-21 16:13 | 37.27951 | 140.30601 | 30237 ft | 521 kts | 135° |
| 2026-04-21 16:13 | 37.25827 | 140.34273 | 29704 ft | 517 kts | 135° |
| 2026-04-21 16:14 | 37.23717 | 140.37907 | 29214 ft | 513 kts | 135° |
| 2026-04-21 16:14 | 37.21623 | 140.41504 | 28704 ft | 508 kts | 135° |
| 2026-04-21 16:14 | 37.19572 | 140.45016 | 28262 ft | 504 kts | 135° |
| 2026-04-21 16:14 | 37.17482 | 140.48589 | 27788 ft | 500 kts | 134° |
| 2026-04-21 16:15 | 37.15464 | 140.52041 | 27336 ft | 495 kts | 134° |
| 2026-04-21 16:15 | 37.13437 | 140.55507 | 26882 ft | 491 kts | 134° |
| 2026-04-21 16:15 | 37.11429 | 140.58936 | 26413 ft | 486 kts | 134° |
| 2026-04-21 16:15 | 37.09443 | 140.62329 | 25978 ft | 481 kts | 134° |
| 2026-04-21 16:16 | 37.07393 | 140.65581 | 25575 ft | 467 kts | 143° |
| 2026-04-21 16:16 | 37.04956 | 140.68095 | 25141 ft | 443 kts | 159° |
| 2026-04-21 16:16 | 37.02271 | 140.69739 | 24720 ft | 419 kts | 173° |
| 2026-04-21 16:16 | 36.99522 | 140.70549 | 24310 ft | 395 kts | 186° |
| 2026-04-21 16:17 | 36.96854 | 140.70612 | 23890 ft | 373 kts | 198° |
| 2026-04-21 16:17 | 36.94328 | 140.70159 | 23458 ft | 365 kts | 201° |
| 2026-04-21 16:17 | 36.91821 | 140.69666 | 22892 ft | 364 kts | 201° |
| 2026-04-21 16:17 | 36.89321 | 140.69179 | 22335 ft | 363 kts | 201° |
| 2026-04-21 16:18 | 36.86833 | 140.68700 | 21786 ft | 361 kts | 200° |
| 2026-04-21 16:18 | 36.84323 | 140.68222 | 21242 ft | 359 kts | 200° |
| 2026-04-21 16:18 | 36.81863 | 140.67750 | 20714 ft | 357 kts | 200° |
| 2026-04-21 16:18 | 36.79420 | 140.67283 | 20207 ft | 354 kts | 200° |
| 2026-04-21 16:19 | 36.76989 | 140.66817 | 19678 ft | 353 kts | 200° |
| 2026-04-21 16:19 | 36.74568 | 140.66351 | 19172 ft | 351 kts | 200° |
| 2026-04-21 16:19 | 36.72161 | 140.65886 | 18684 ft | 349 kts | 200° |
| 2026-04-21 16:19 | 36.69763 | 140.65423 | 18168 ft | 347 kts | 199° |
| 2026-04-21 16:20 | 36.67383 | 140.64964 | 17614 ft | 346 kts | 199° |
| 2026-04-21 16:20 | 36.65009 | 140.64504 | 17035 ft | 344 kts | 198° |
| 2026-04-21 16:20 | 36.62647 | 140.64051 | 16495 ft | 342 kts | 198° |
| 2026-04-21 16:20 | 36.60293 | 140.63602 | 15967 ft | 341 kts | 197° |
| 2026-04-21 16:21 | 36.58738 | 140.63306 | 15617 ft | 341 kts | 197° |
| 2026-04-21 16:21 | 36.56396 | 140.62860 | 15172 ft | 339 kts | 197° |
| 2026-04-21 16:21 | 36.53446 | 140.61918 | 15061 ft | 327 kts | 205° |
| 2026-04-21 16:21 | 36.51268 | 140.61081 | 15068 ft | 328 kts | 205° |
| 2026-04-21 16:22 | 36.49795 | 140.60519 | 14912 ft | 329 kts | 205° |
| 2026-04-21 16:22 | 36.47614 | 140.59691 | 14541 ft | 327 kts | 204° |
| 2026-04-21 16:22 | 36.44741 | 140.58607 | 14072 ft | 326 kts | 204° |
| 2026-04-21 16:22 | 36.43281 | 140.58057 | 13829 ft | 326 kts | 204° |
| 2026-04-21 16:23 | 36.41108 | 140.57237 | 13425 ft | 324 kts | 204° |
| 2026-04-21 16:23 | 36.34477 | 140.56464 | 12231 ft | 339 kts | 166° |
| 2026-04-21 16:24 | 36.31540 | 140.57777 | 11723 ft | 337 kts | 164° |
| 2026-04-21 16:24 | 36.30060 | 140.58456 | 11468 ft | 335 kts | 164° |
| 2026-04-21 16:24 | 36.27878 | 140.59462 | 11093 ft | 333 kts | 163° |
| 2026-04-21 16:24 | 36.25718 | 140.60459 | 10721 ft | 330 kts | 163° |
| 2026-04-21 16:25 | 36.23574 | 140.61443 | 10356 ft | 327 kts | 163° |
| 2026-04-21 16:25 | 36.21453 | 140.62410 | 9987 ft | 324 kts | 163° |
| 2026-04-21 16:25 | 36.19380 | 140.63354 | 9609 ft | 319 kts | 163° |
| 2026-04-21 16:25 | 36.17334 | 140.64284 | 9422 ft | 306 kts | 163° |
| 2026-04-21 16:26 | 36.15364 | 140.65178 | 9289 ft | 299 kts | 163° |
| 2026-04-21 16:26 | 36.13416 | 140.66058 | 9144 ft | 298 kts | 163° |
| 2026-04-21 16:26 | 36.11471 | 140.66932 | 8832 ft | 296 kts | 165° |
| 2026-04-21 16:26 | 36.09481 | 140.67344 | 8522 ft | 287 kts | 186° |
| 2026-04-21 16:27 | 36.07569 | 140.66850 | 8214 ft | 278 kts | 207° |
| 2026-04-21 16:27 | 36.05990 | 140.65573 | 7915 ft | 267 kts | 228° |
| 2026-04-21 16:27 | 36.04921 | 140.63777 | 7616 ft | 256 kts | 246° |
| 2026-04-21 16:27 | 36.04153 | 140.61823 | 7322 ft | 251 kts | 247° |
| 2026-04-21 16:28 | 36.03397 | 140.59901 | 7015 ft | 247 kts | 247° |
| 2026-04-21 16:28 | 36.02651 | 140.58010 | 6726 ft | 243 kts | 247° |
| 2026-04-21 16:28 | 36.01913 | 140.56146 | 6422 ft | 239 kts | 246° |
| 2026-04-21 16:28 | 36.01187 | 140.54317 | 6125 ft | 236 kts | 246° |
| 2026-04-21 16:29 | 36.00469 | 140.52507 | 5816 ft | 232 kts | 247° |
| 2026-04-21 16:29 | 35.99818 | 140.50701 | 5508 ft | 227 kts | 257° |
| 2026-04-21 16:29 | 35.99668 | 140.48787 | 5209 ft | 223 kts | 271° |
| 2026-04-21 16:29 | 35.99658 | 140.46874 | 4908 ft | 222 kts | 272° |
| 2026-04-21 16:30 | 35.99656 | 140.44979 | 4599 ft | 219 kts | 272° |
| 2026-04-21 16:30 | 35.99648 | 140.43104 | 4288 ft | 217 kts | 272° |
| 2026-04-21 16:30 | 35.99636 | 140.41250 | 3989 ft | 215 kts | 272° |
| 2026-04-21 16:30 | 35.99612 | 140.39439 | 3730 ft | 213 kts | 272° |
| 2026-04-21 16:31 | 35.99583 | 140.37615 | 3482 ft | 212 kts | 272° |
| 2026-04-21 16:31 | 35.99551 | 140.35788 | 3230 ft | 209 kts | 272° |
| 2026-04-21 16:31 | 35.99518 | 140.34003 | 2978 ft | 207 kts | 272° |
| 2026-04-21 16:31 | 35.99484 | 140.32255 | 2732 ft | 206 kts | 269° |
| 2026-04-21 16:32 | 35.99143 | 140.30532 | 2483 ft | 207 kts | 253° |
| 2026-04-21 16:32 | 35.98625 | 140.28895 | 2248 ft | 204 kts | 242° |
| 2026-04-21 16:32 | 35.97766 | 140.27557 | 2084 ft | 197 kts | 218° |
| 2026-04-21 16:32 | 35.96505 | 140.27011 | 1882 ft | 192 kts | 184° |
| 2026-04-21 16:33 | 35.95209 | 140.27233 | 1694 ft | 188 kts | 159° |
| 2026-04-21 16:33 | 35.94077 | 140.27982 | 1602 ft | 181 kts | 148° |
| 2026-04-21 16:33 | 35.93006 | 140.28760 | 1594 ft | 177 kts | 148° |
| 2026-04-21 16:33 | 35.91944 | 140.29531 | 1598 ft | 176 kts | 148° |
| 2026-04-21 16:34 | 35.90903 | 140.30287 | 1599 ft | 171 kts | 148° |
| 2026-04-21 16:34 | 35.89891 | 140.31021 | 1603 ft | 167 kts | 148° |
| 2026-04-21 16:34 | 35.88912 | 140.31731 | 1602 ft | 160 kts | 148° |
| 2026-04-21 16:34 | 35.87960 | 140.32421 | 1606 ft | 157 kts | 148° |
| 2026-04-21 16:35 | 35.87022 | 140.33101 | 1561 ft | 154 kts | 148° |
| 2026-04-21 16:35 | 35.86114 | 140.33759 | 1425 ft | 150 kts | 148° |
| 2026-04-21 16:35 | 35.85233 | 140.34397 | 1254 ft | 143 kts | 148° |
| 2026-04-21 16:35 | 35.84395 | 140.35004 | 1072 ft | 138 kts | 147° |
| 2026-04-21 16:36 | 35.83576 | 140.35594 | 872 ft | 134 kts | 148° |
| 2026-04-21 16:36 | 35.82776 | 140.36172 | 721 ft | 133 kts | 149° |
| 2026-04-21 16:36 | 35.81981 | 140.36749 | 531 ft | 132 kts | 149° |
| 2026-04-21 16:36 | 35.81194 | 140.37317 | 336 ft | 131 kts | 149° |
| 2026-04-21 16:37 | 35.80410 | 140.37888 | 172 ft | 130 kts | 149° |
| 2026-04-21 16:37 | 35.79704 | 140.38398 | 143 ft | 99 kts | 150° |
| 2026-04-21 16:37 | 35.79261 | 140.38719 | 146 ft | 49 kts | 149° |
| 2026-04-21 16:37 | 35.79105 | 140.38830 | 145 ft | 13 kts | 150° |
| 2026-04-21 16:38 | 35.79017 | 140.38889 | 144 ft | 16 kts | 155° |
| 2026-04-21 16:38 | 35.78900 | 140.38930 | 142 ft | 20 kts | 171° |
| 2026-04-21 16:38 | 35.78756 | 140.38948 | 144 ft | 21 kts | 174° |
| 2026-04-21 16:38 | 35.78613 | 140.38966 | 144 ft | 18 kts | 174° |
| 2026-04-21 16:39 | 35.78543 | 140.39003 | 144 ft | 11 kts | 134° |
| 2026-04-21 16:39 | 35.78485 | 140.39072 | 144 ft | 12 kts | 137° |
| 2026-04-21 16:39 | 35.78410 | 140.39127 | 143 ft | 14 kts | 167° |
| 2026-04-21 16:39 | 35.78313 | 140.39154 | 143 ft | 15 kts | 167° |
| 2026-04-21 16:40 | 35.78216 | 140.39187 | 143 ft | 15 kts | 163° |
| 2026-04-21 16:40 | 35.78129 | 140.39169 | 144 ft | 12 kts | 231° |
| 2026-04-21 16:40 | 35.78085 | 140.39108 | 144 ft | 9 kts | 193° |
| 2026-04-21 16:40 | 35.78024 | 140.39138 | 144 ft | 10 kts | 149° |
| 2026-04-21 16:41 | 35.77964 | 140.39198 | 144 ft | 12 kts | 121° |
| 2026-04-21 16:41 | 35.77924 | 140.39297 | 144 ft | 14 kts | 116° |
| 2026-04-21 16:41 | 35.77878 | 140.39408 | 144 ft | 15 kts | 116° |
| 2026-04-21 16:41 | 35.77808 | 140.39511 | 144 ft | 17 kts | 149° |
| 2026-04-21 16:42 | 35.77702 | 140.39587 | 144 ft | 18 kts | 150° |
| 2026-04-21 16:42 | 35.77588 | 140.39669 | 144 ft | 20 kts | 149° |
| 2026-04-21 16:42 | 35.77472 | 140.39754 | 144 ft | 17 kts | 149° |
| 2026-04-21 16:42 | 35.77384 | 140.39818 | 144 ft | 10 kts | 150° |
| 2026-04-21 16:43 | 35.77326 | 140.39859 | 144 ft | 10 kts | 149° |
| 2026-04-21 16:43 | 35.77267 | 140.39871 | 144 ft | 9 kts | 227° |
| 2026-04-21 16:43 | 35.77215 | 140.39822 | 144 ft | 10 kts | 185° |
| 2026-04-21 16:43 | 35.77146 | 140.39862 | 144 ft | 12 kts | 150° |
| 2026-04-21 16:44 | 35.77063 | 140.39872 | 144 ft | 13 kts | 204° |
| 2026-04-21 16:44 | 35.76973 | 140.39820 | 144 ft | 15 kts | 204° |
| 2026-04-21 16:44 | 35.76870 | 140.39778 | 144 ft | 17 kts | 181° |
| 2026-04-21 16:44 | 35.76762 | 140.39747 | 144 ft | 16 kts | 222° |
| 2026-04-21 16:45 | 35.76673 | 140.39654 | 144 ft | 16 kts | 211° |
| 2026-04-21 16:45 | 35.76564 | 140.39596 | 144 ft | 18 kts | 202° |
| 2026-04-21 16:45 | 35.76447 | 140.39530 | 144 ft | 19 kts | 204° |
| 2026-04-21 16:45 | 35.76319 | 140.39462 | 144 ft | 21 kts | 203° |
| 2026-04-21 16:46 | 35.76185 | 140.39387 | 144 ft | 22 kts | 205° |
| 2026-04-21 16:46 | 35.76046 | 140.39309 | 144 ft | 22 kts | 204° |
| 2026-04-21 16:46 | 35.75935 | 140.39248 | 143 ft | 18 kts | 204° |
| 2026-04-21 16:46 | 35.75826 | 140.39170 | 144 ft | 19 kts | 230° |
| 2026-04-21 16:47 | 35.75756 | 140.39027 | 144 ft | 20 kts | 239° |
| 2026-04-21 16:47 | 35.75683 | 140.38875 | 144 ft | 21 kts | 239° |
| 2026-04-21 16:47 | 35.75608 | 140.38717 | 144 ft | 17 kts | 244° |
| 2026-04-21 16:47 | 35.75598 | 140.38574 | 144 ft | 16 kts | 274° |
| 2026-04-21 16:48 | 35.75672 | 140.38490 | 144 ft | 16 kts | 330° |
| 2026-04-21 16:48 | 35.75771 | 140.38419 | 144 ft | 17 kts | 329° |
| 2026-04-21 16:48 | 35.75876 | 140.38339 | 144 ft | 19 kts | 328° |
| 2026-04-21 16:48 | 35.75977 | 140.38270 | 144 ft | 11 kts | 330° |
| 2026-04-21 16:49 | 35.76045 | 140.38263 | 144 ft | 9 kts | 40° |
| 2026-04-21 16:49 | 35.76085 | 140.38320 | 144 ft | 10 kts | 52° |
| 2026-04-21 16:49 | 35.76116 | 140.38385 | 144 ft | 7 kts | 59° |
| 2026-04-21 16:49 | 35.76128 | 140.38410 | 144 ft | 1 kts | 59° |
| 2026-04-21 16:50 | 35.76131 | 140.38414 | 144 ft | 1 kts | 59° |
| 2026-04-21 16:50 | 35.76133 | 140.38419 | 144 ft | 0 kts | 58° |